createdAt,value
2022-12-09T00:01:52.390Z,3.05
2022-12-09T00:04:24.906Z,3.07
2022-12-09T00:06:56.586Z,3.19
2022-12-09T00:09:28.376Z,3.03
2022-12-09T00:12:00.310Z,3.07
2022-12-09T00:14:32.260Z,3.12
2022-12-09T00:17:04.072Z,3.08
2022-12-09T00:19:36.195Z,3.02
2022-12-09T00:22:08.184Z,3.07
2022-12-09T00:24:39.988Z,3.14
2022-12-09T00:27:11.575Z,3.06
2022-12-09T00:29:44.147Z,3.01
2022-12-09T00:32:16.232Z,3.23
2022-12-09T00:34:49.117Z,3.36
2022-12-09T00:37:19.231Z,3.31
2022-12-09T00:39:51.133Z,3.13
2022-12-09T00:42:22.776Z,3.14
2022-12-09T00:45:16.949Z,3.18
2022-12-09T00:47:53.150Z,3.10
2022-12-09T00:50:25.197Z,3.12
2022-12-09T00:52:57.400Z,3.18
2022-12-09T00:55:29.128Z,3.20
2022-12-09T00:58:01.201Z,3.20
2022-12-09T01:00:33.517Z,3.28
2022-12-09T01:03:05.960Z,3.40
2022-12-09T01:05:37.345Z,3.43
2022-12-09T01:08:09.817Z,3.49
2022-12-09T01:10:44.253Z,3.56
2022-12-09T01:13:17.455Z,3.48
2022-12-09T01:15:49.215Z,3.27
2022-12-09T01:18:21.110Z,3.26
2022-12-09T01:21:00.074Z,3.37
2022-12-09T01:23:32.492Z,3.29
2022-12-09T01:26:06.681Z,3.17
2022-12-09T01:28:40.479Z,3.09
2022-12-09T01:31:14.835Z,3.24
2022-12-09T01:33:48.088Z,3.23
2022-12-09T01:36:20.352Z,3.31
2022-12-09T01:38:52.164Z,3.26
2022-12-09T01:41:24.261Z,3.22
2022-12-09T01:44:14.829Z,3.10
2022-12-09T01:46:47.522Z,3.17
2022-12-09T01:49:20.884Z,3.15
2022-12-09T01:52:02.806Z,3.22
2022-12-09T01:54:36.499Z,3.26
2022-12-09T01:57:09.028Z,3.21
2022-12-09T01:59:42.461Z,2.98
2022-12-09T02:02:19.707Z,2.92
2022-12-09T02:04:53.352Z,2.89
2022-12-09T02:07:28.286Z,3.05
2022-12-09T02:10:01.843Z,3.01
2022-12-09T02:12:51.312Z,3.03
2022-12-09T02:15:33.861Z,3.04
2022-12-09T02:18:21.292Z,3.02
2022-12-09T02:21:02.656Z,3.04
2022-12-09T02:23:43.588Z,2.99
2022-12-09T02:26:32.158Z,2.93
2022-12-09T02:29:37.903Z,2.93
2022-12-09T02:32:30.824Z,2.89
2022-12-09T02:35:07.823Z,3.08
2022-12-09T02:37:45.685Z,2.93
2022-12-09T02:40:20.655Z,2.90
2022-12-09T02:42:54.458Z,2.98
2022-12-09T02:45:29.270Z,3.06
2022-12-09T02:48:03.657Z,2.96
2022-12-09T02:50:39.042Z,2.91
2022-12-09T02:53:13.575Z,2.91
2022-12-09T02:55:49.763Z,2.86
2022-12-09T02:58:21.484Z,2.97
2022-12-09T03:00:55.723Z,2.98
2022-12-09T03:03:29.773Z,2.83
2022-12-09T03:06:06.588Z,2.81
2022-12-09T03:08:46.669Z,2.94
2022-12-09T03:11:20.165Z,2.95
2022-12-09T03:14:00.097Z,2.83
2022-12-09T03:16:34.951Z,2.84
2022-12-09T03:19:11.256Z,2.74
2022-12-09T03:21:46.856Z,2.78
2022-12-09T03:24:22.543Z,2.74
2022-12-09T03:26:55.861Z,2.74
2022-12-09T03:29:31.005Z,2.78
2022-12-09T03:32:02.960Z,2.88
2022-12-09T03:34:38.714Z,2.94
2022-12-09T03:37:12.149Z,3.08
2022-12-09T03:39:46.272Z,3.13
2022-12-09T03:42:22.634Z,3.04
2022-12-09T03:44:58.028Z,3.09
2022-12-09T03:47:30.232Z,3.12
2022-12-09T03:50:02.203Z,2.94
2022-12-09T03:52:41.536Z,2.86
2022-12-09T03:55:20.525Z,2.96
2022-12-09T03:57:58.162Z,3.09
2022-12-09T04:00:30.518Z,3.11
2022-12-09T04:03:02.251Z,3.11
2022-12-09T04:05:35.040Z,3.14
2022-12-09T04:08:07.458Z,3.14
2022-12-09T04:10:39.685Z,3.12
2022-12-09T04:13:11.452Z,3.16
2022-12-09T04:15:43.167Z,3.15
2022-12-09T04:18:14.886Z,3.12
2022-12-09T04:20:46.962Z,3.02
2022-12-09T04:23:18.775Z,3.02
2022-12-09T04:25:50.500Z,2.99
2022-12-09T04:28:22.298Z,2.89
2022-12-09T04:30:54.199Z,2.75
2022-12-09T04:33:27.001Z,2.65
2022-12-09T04:36:06.940Z,2.71
2022-12-09T04:38:39.309Z,2.70
2022-12-09T04:41:12.515Z,2.68
2022-12-09T04:43:44.622Z,2.63
2022-12-09T04:46:18.747Z,2.62
2022-12-09T04:48:50.554Z,2.60
2022-12-09T04:51:22.404Z,2.53
2022-12-09T04:53:54.197Z,2.58
2022-12-09T04:56:26.349Z,2.63
2022-12-09T04:58:58.090Z,2.70
2022-12-09T05:01:31.689Z,2.65
2022-12-09T05:04:04.248Z,2.56
2022-12-09T05:06:36.637Z,2.53
2022-12-09T05:09:11.413Z,2.49
2022-12-09T05:11:43.764Z,2.47
2022-12-09T05:14:15.910Z,2.49
2022-12-09T05:16:47.681Z,2.38
2022-12-09T05:19:19.513Z,2.46
2022-12-09T05:21:51.857Z,2.53
2022-12-09T05:24:23.779Z,2.47
2022-12-09T05:26:55.927Z,2.35
2022-12-09T05:29:27.797Z,2.20
2022-12-09T05:32:00.283Z,2.32
2022-12-09T05:34:32.865Z,2.32
2022-12-09T05:37:03.664Z,2.30
2022-12-09T05:39:35.639Z,2.27
2022-12-09T05:42:08.285Z,2.50
2022-12-09T05:44:40.090Z,2.33
2022-12-09T05:47:12.445Z,2.21
2022-12-09T05:49:45.388Z,2.20
2022-12-09T05:52:17.336Z,2.17
2022-12-09T05:54:49.985Z,2.24
2022-12-09T05:57:22.081Z,2.20
2022-12-09T05:59:53.796Z,2.15
2022-12-09T06:02:25.690Z,2.23
2022-12-09T06:04:57.999Z,2.20
2022-12-09T06:07:30.283Z,2.27
2022-12-09T06:10:02.474Z,2.37
2022-12-09T06:12:33.492Z,2.19
2022-12-09T06:15:09.634Z,2.14
2022-12-09T06:17:43.223Z,2.23
2022-12-09T06:20:15.812Z,2.46
2022-12-09T06:22:47.973Z,2.51
2022-12-09T06:25:20.442Z,2.55
2022-12-09T06:27:52.704Z,2.57
2022-12-09T06:30:24.697Z,2.67
2022-12-09T06:32:56.981Z,2.66
2022-12-09T06:35:28.759Z,2.66
2022-12-09T06:38:01.161Z,2.65
2022-12-09T06:40:32.944Z,2.65
2022-12-09T06:43:05.081Z,2.65
2022-12-09T06:45:38.357Z,2.53
2022-12-09T06:48:10.837Z,2.63
2022-12-09T06:50:42.834Z,2.66
2022-12-09T06:53:14.885Z,2.70
2022-12-09T06:55:46.930Z,2.72
2022-12-09T06:58:18.699Z,2.68
2022-12-09T07:00:52.443Z,2.70
2022-12-09T07:03:24.986Z,2.54
2022-12-09T07:05:57.670Z,2.58
2022-12-09T07:08:29.894Z,2.71
2022-12-09T07:11:02.765Z,2.65
2022-12-09T07:13:35.021Z,2.64
2022-12-09T07:16:07.942Z,2.72
2022-12-09T07:18:39.825Z,2.68
2022-12-09T07:21:13.450Z,2.80
2022-12-09T07:23:46.064Z,2.60
2022-12-09T07:26:18.486Z,2.61
2022-12-09T07:28:51.255Z,2.72
2022-12-09T07:31:25.899Z,2.57
2022-12-09T07:34:00.166Z,2.63
2022-12-09T07:36:33.809Z,2.62
2022-12-09T07:39:08.448Z,2.45
2022-12-09T07:41:40.692Z,2.17
2022-12-09T07:44:13.665Z,2.17
2022-12-09T07:46:45.606Z,2.34
2022-12-09T07:49:17.804Z,2.30
2022-12-09T07:51:50.159Z,2.17
2022-12-09T07:54:23.224Z,2.28
2022-12-09T07:56:55.320Z,2.21
2022-12-09T07:59:27.168Z,2.15
2022-12-09T08:02:05.495Z,2.21
2022-12-09T08:04:39.348Z,2.11
2022-12-09T08:07:13.571Z,1.89
2022-12-09T08:09:45.717Z,1.90
2022-12-09T08:12:17.726Z,2.11
2022-12-09T08:14:50.004Z,1.95
2022-12-09T08:17:23.014Z,1.99
2022-12-09T08:19:54.875Z,2.03
2022-12-09T08:22:26.796Z,2.25
2022-12-09T08:24:58.804Z,2.19
2022-12-09T08:27:31.068Z,2.06
2022-12-09T08:30:02.807Z,2.04
2022-12-09T08:32:35.134Z,2.08
2022-12-09T08:35:15.221Z,2.12
2022-12-09T08:37:47.222Z,2.31
2022-12-09T08:40:19.211Z,2.13
2022-12-09T08:42:51.304Z,1.98
2022-12-09T08:45:23.619Z,2.14
2022-12-09T08:47:55.633Z,2.25
2022-12-09T08:50:28.141Z,2.30
2022-12-09T08:53:00.314Z,2.42
2022-12-09T08:55:32.020Z,2.18
2022-12-09T08:58:04.513Z,2.12
2022-12-09T09:00:36.412Z,2.29
2022-12-09T09:03:08.569Z,2.52
2022-12-09T09:05:40.817Z,2.54
2022-12-09T09:08:13.365Z,2.38
2022-12-09T09:10:45.296Z,2.34
2022-12-09T09:13:17.124Z,2.41
2022-12-09T09:15:49.767Z,2.32
2022-12-09T09:18:22.068Z,2.32
2022-12-09T09:20:57.675Z,2.28
2022-12-09T09:23:29.451Z,2.27
2022-12-09T09:26:01.794Z,2.10
2022-12-09T09:28:34.806Z,2.25
2022-12-09T09:31:09.373Z,2.23
2022-12-09T09:33:41.703Z,2.27
2022-12-09T09:36:18.913Z,2.48
2022-12-09T09:38:52.460Z,2.73
2022-12-09T09:41:30.023Z,2.81
2022-12-09T09:44:02.916Z,2.93
2022-12-09T09:46:40.775Z,2.97
2022-12-09T09:49:18.021Z,2.97
2022-12-09T09:51:50.565Z,2.96
2022-12-09T09:54:22.768Z,2.84
2022-12-09T09:57:00.109Z,2.91
2022-12-09T09:59:45.375Z,3.03
2022-12-09T10:02:29.485Z,3.05
2022-12-09T10:05:14.471Z,2.94
2022-12-09T10:07:51.649Z,2.94
2022-12-09T10:10:37.562Z,2.84
2022-12-09T10:13:22.893Z,2.80
2022-12-09T10:16:07.366Z,2.75
2022-12-09T10:18:44.126Z,2.77
2022-12-09T10:21:20.836Z,2.77
2022-12-09T10:23:52.865Z,2.57
2022-12-09T10:26:27.583Z,2.59
2022-12-09T10:29:06.372Z,2.61
2022-12-09T10:31:38.256Z,2.60
2022-12-09T10:34:14.345Z,2.60
2022-12-09T10:36:48.719Z,2.57
2022-12-09T10:39:23.472Z,2.55
2022-12-09T10:42:16.200Z,2.76
2022-12-09T10:44:49.017Z,2.81
2022-12-09T10:47:28.177Z,2.85
2022-12-09T10:50:01.038Z,2.94
2022-12-09T10:52:33.098Z,2.77
2022-12-09T10:55:05.366Z,2.90
2022-12-09T10:57:37.511Z,2.79
2022-12-09T11:00:22.761Z,2.83
2022-12-09T11:02:56.816Z,2.66
2022-12-09T11:05:31.903Z,2.59
2022-12-09T11:08:05.018Z,2.51
2022-12-09T11:10:38.496Z,2.49
2022-12-09T11:13:16.009Z,2.49
2022-12-09T11:15:51.999Z,2.51
2022-12-09T11:18:27.411Z,2.76
2022-12-09T11:21:02.058Z,2.86
2022-12-09T11:23:35.596Z,2.96
2022-12-09T11:26:23.135Z,3.00
2022-12-09T11:29:05.298Z,3.11
2022-12-09T11:31:42.020Z,2.88
2022-12-09T11:34:23.073Z,2.96
2022-12-09T11:36:58.106Z,3.08
2022-12-09T11:39:32.057Z,3.01
2022-12-09T11:42:18.996Z,2.79
2022-12-09T11:44:59.327Z,2.93
2022-12-09T11:50:36.585Z,3.09
2022-12-09T11:53:18.388Z,3.08
2022-12-09T11:55:53.976Z,3.06
2022-12-09T11:58:29.614Z,3.08
2022-12-09T12:01:07.064Z,2.96
2022-12-09T12:03:41.429Z,2.93
2022-12-09T12:06:19.232Z,2.80
2022-12-09T12:08:55.963Z,3.00
2022-12-09T12:11:35.608Z,2.95
2022-12-09T12:14:16.787Z,3.09
2022-12-09T12:16:55.449Z,3.16
2022-12-09T12:19:32.004Z,3.07
2022-12-09T12:22:27.163Z,3.09
2022-12-09T12:25:20.076Z,3.15
2022-12-09T12:27:59.132Z,3.16
2022-12-09T12:30:41.296Z,3.28
2022-12-09T12:36:35.521Z,3.15
2022-12-09T12:39:23.425Z,3.18
2022-12-09T12:42:19.929Z,3.08
2022-12-09T12:45:18.218Z,2.64
2022-12-09T12:48:00.184Z,2.88
2022-12-09T12:50:45.728Z,3.01
2022-12-09T12:53:32.777Z,3.18
2022-12-09T12:56:09.425Z,3.22
2022-12-09T12:58:56.597Z,3.23
2022-12-09T13:01:33.953Z,3.15
2022-12-09T13:04:16.822Z,3.07
2022-12-09T13:06:49.711Z,3.06
2022-12-09T13:09:27.135Z,3.04
2022-12-09T13:12:04.052Z,2.70
2022-12-09T13:14:47.440Z,2.63
2022-12-09T13:17:26.428Z,2.71
2022-12-09T13:20:02.077Z,2.83
2022-12-09T13:22:43.199Z,2.81
2022-12-09T13:25:25.602Z,2.96
2022-12-09T13:28:05.070Z,3.07
2022-12-09T13:30:41.105Z,3.05
2022-12-09T13:33:28.469Z,3.01
2022-12-09T13:36:06.525Z,2.86
2022-12-09T13:38:40.738Z,2.52
2022-12-09T13:41:56.407Z,2.43
2022-12-09T13:44:33.401Z,2.55
2022-12-09T13:47:25.404Z,2.60
2022-12-09T13:50:05.754Z,2.74
2022-12-09T13:52:48.542Z,2.67
2022-12-09T13:55:30.422Z,2.76
2022-12-09T13:58:19.321Z,2.86
2022-12-09T14:01:05.456Z,2.65
2022-12-09T14:03:46.720Z,2.89
2022-12-09T14:06:25.940Z,2.96
2022-12-09T14:09:01.935Z,2.92
2022-12-09T14:11:51.188Z,2.90
2022-12-09T14:14:50.873Z,2.83
2022-12-09T14:17:59.976Z,2.97
2022-12-09T14:20:42.296Z,2.98
2022-12-09T14:23:19.808Z,2.99
2022-12-09T14:26:09.308Z,2.97
2022-12-09T14:28:56.949Z,3.03
2022-12-09T14:31:51.152Z,3.01
2022-12-09T14:34:38.817Z,3.05
2022-12-09T14:37:37.341Z,2.93
2022-12-09T14:40:26.280Z,2.87
2022-12-09T14:43:09.235Z,2.94
2022-12-09T14:45:51.991Z,3.03
2022-12-09T14:48:23.977Z,3.03
2022-12-09T14:51:15.664Z,3.03
2022-12-09T14:53:51.352Z,2.75
2022-12-09T14:56:25.426Z,2.67
2022-12-09T14:59:01.326Z,2.69
2022-12-09T15:01:47.189Z,2.84
2022-12-09T15:04:30.553Z,2.93
2022-12-09T15:07:16.659Z,2.89
2022-12-09T15:09:53.432Z,2.88
2022-12-09T15:12:28.172Z,2.89
2022-12-09T15:15:05.180Z,2.78
2022-12-09T15:17:45.908Z,2.78
2022-12-09T15:20:30.031Z,2.61
2022-12-09T15:23:05.133Z,2.44
2022-12-09T15:25:47.065Z,2.57
2022-12-09T15:28:26.073Z,2.52
2022-12-09T15:31:01.843Z,2.46
2022-12-09T15:33:41.597Z,2.65
2022-12-09T15:36:16.933Z,2.74
2022-12-09T15:38:51.997Z,2.73
2022-12-09T15:41:42.986Z,2.59
2022-12-09T15:44:18.886Z,2.58
2022-12-09T15:46:53.230Z,2.56
2022-12-09T15:49:28.809Z,2.58
2022-12-09T15:52:04.672Z,2.56
2022-12-09T15:54:43.067Z,2.62
2022-12-09T15:57:17.982Z,2.66
2022-12-09T15:59:55.886Z,2.71
2022-12-09T16:02:30.819Z,2.65
2022-12-09T16:05:06.433Z,2.52
2022-12-09T16:07:39.143Z,2.52
2022-12-09T16:10:12.009Z,2.30
2022-12-09T16:12:44.770Z,2.45
2022-12-09T16:15:35.226Z,2.31
2022-12-09T16:18:11.227Z,2.47
2022-12-09T16:20:45.721Z,2.51
2022-12-09T16:23:24.784Z,2.50
2022-12-09T16:26:05.046Z,2.49
2022-12-09T16:28:39.934Z,2.38
2022-12-09T16:31:20.422Z,2.21
2022-12-09T16:33:52.757Z,2.10
2022-12-09T16:36:28.974Z,2.30
2022-12-09T16:39:42.753Z,1.96
2022-12-09T16:42:33.206Z,1.92
2022-12-09T16:45:31.443Z,2.07
2022-12-09T16:48:03.873Z,1.99
2022-12-09T16:50:37.637Z,1.92
2022-12-09T16:53:16.408Z,1.93
2022-12-09T16:55:54.592Z,1.97
2022-12-09T16:58:26.490Z,1.91
2022-12-09T17:00:59.673Z,1.94
2022-12-09T17:03:38.421Z,1.97
2022-12-09T17:06:16.900Z,1.99
2022-12-09T17:08:49.041Z,2.05
2022-12-09T17:11:21.699Z,2.01
2022-12-09T17:13:51.863Z,1.97
2022-12-09T17:16:25.731Z,1.91
2022-12-09T17:18:57.471Z,1.70
2022-12-09T17:21:29.258Z,1.78
2022-12-09T17:24:00.937Z,1.87
2022-12-09T17:26:32.793Z,1.83
2022-12-09T17:29:04.991Z,1.93
2022-12-09T17:31:36.682Z,2.01
2022-12-09T17:34:08.427Z,1.84
2022-12-09T17:36:40.263Z,1.61
2022-12-09T17:39:13.224Z,1.82
2022-12-09T17:41:45.319Z,1.78
2022-12-09T17:44:17.275Z,1.66
2022-12-09T17:46:49.067Z,1.61
2022-12-09T17:49:21.653Z,1.81
2022-12-09T17:51:53.430Z,1.96
2022-12-09T17:54:25.522Z,1.58
2022-12-09T17:56:57.082Z,1.57
2022-12-09T17:59:29.042Z,1.52
2022-12-09T18:02:03.379Z,1.58
2022-12-09T18:04:35.690Z,1.60
2022-12-09T18:07:07.494Z,1.63
2022-12-09T18:09:39.399Z,1.61
2022-12-09T18:12:11.155Z,1.74
2022-12-09T18:14:42.890Z,1.88
2022-12-09T18:17:14.625Z,1.94
2022-12-09T18:19:46.375Z,1.83
2022-12-09T18:22:18.677Z,1.72
2022-12-09T18:24:50.486Z,1.86
2022-12-09T18:27:22.204Z,1.95
2022-12-09T18:29:54.289Z,1.95
2022-12-09T18:32:25.926Z,1.87
2022-12-09T18:34:57.592Z,1.80
2022-12-09T18:37:30.384Z,1.84
2022-12-09T18:40:02.237Z,1.83
2022-12-09T18:42:34.026Z,1.84
2022-12-09T18:45:07.121Z,1.87
2022-12-09T18:47:38.884Z,1.65
2022-12-09T18:50:11.650Z,1.64
2022-12-09T18:52:43.811Z,1.68
2022-12-09T18:55:15.616Z,1.77
2022-12-09T18:57:47.552Z,1.79
2022-12-09T19:00:20.257Z,1.82
2022-12-09T19:02:50.497Z,1.59
2022-12-09T19:05:22.415Z,1.73
2022-12-09T19:07:54.435Z,1.72
2022-12-09T19:10:26.096Z,1.63
2022-12-09T19:13:00.042Z,1.68
2022-12-09T19:15:32.159Z,1.58
2022-12-09T19:18:03.928Z,1.67
2022-12-09T19:20:35.730Z,1.51
2022-12-09T19:23:08.872Z,1.67
2022-12-09T19:25:43.685Z,1.81
2022-12-09T19:28:17.378Z,1.60
2022-12-09T19:30:50.061Z,1.58
2022-12-09T19:33:22.018Z,1.44
2022-12-09T19:35:53.868Z,1.65
2022-12-09T19:38:25.785Z,1.76
2022-12-09T19:41:02.521Z,1.61
2022-12-09T19:43:34.574Z,1.48
2022-12-09T19:46:08.729Z,1.68
2022-12-09T19:48:43.645Z,1.59
2022-12-09T19:51:18.053Z,1.64
2022-12-09T19:53:50.486Z,1.64
2022-12-09T19:56:23.075Z,1.73
2022-12-09T19:58:55.636Z,1.69
2022-12-09T20:01:29.057Z,1.61
2022-12-09T20:04:19.167Z,1.62
2022-12-09T20:06:56.103Z,1.51
2022-12-09T20:09:29.704Z,1.70
2022-12-09T20:12:01.373Z,1.81
2022-12-09T20:14:33.071Z,1.74
2022-12-09T20:17:05.730Z,1.83
2022-12-09T20:19:38.782Z,1.70
2022-12-09T20:22:10.531Z,1.73
2022-12-09T20:24:43.145Z,1.55
2022-12-09T20:27:15.220Z,1.58
2022-12-09T20:29:48.889Z,1.62
2022-12-09T20:32:21.347Z,1.61
2022-12-09T20:34:53.629Z,1.41
2022-12-09T20:37:26.567Z,1.30
2022-12-09T20:40:00.489Z,1.42
2022-12-09T20:42:32.749Z,1.54
2022-12-09T20:45:05.525Z,1.53
2022-12-09T20:47:36.715Z,1.69
2022-12-09T20:50:10.290Z,1.55
2022-12-09T20:52:42.705Z,1.41
2022-12-09T20:55:15.289Z,1.42
2022-12-09T20:57:47.131Z,1.57
2022-12-09T21:00:19.829Z,1.49
2022-12-09T21:02:50.359Z,2.27
2022-12-09T21:05:22.082Z,1.85
2022-12-09T21:07:53.875Z,1.71
2022-12-09T21:10:25.828Z,1.89
2022-12-09T21:12:57.478Z,1.63
2022-12-09T21:15:30.987Z,1.55
2022-12-09T21:18:02.716Z,1.55
2022-12-09T21:20:44.081Z,1.83
2022-12-09T21:23:33.294Z,1.83
2022-12-09T21:26:08.580Z,1.74
2022-12-09T21:28:41.054Z,1.66
2022-12-09T21:31:15.109Z,1.61
2022-12-09T21:33:51.240Z,1.57
2022-12-09T21:36:25.201Z,1.79
2022-12-09T21:38:57.241Z,1.83
2022-12-09T21:41:31.700Z,1.93
2022-12-09T21:44:03.693Z,2.02
2022-12-09T21:46:38.014Z,2.06
2022-12-09T21:49:10.668Z,2.04
2022-12-09T21:51:40.975Z,1.97
2022-12-09T21:54:12.650Z,1.78
2022-12-09T21:56:44.747Z,1.81
2022-12-09T21:59:16.474Z,1.82
2022-12-09T22:01:50.817Z,1.75
2022-12-09T22:04:22.747Z,1.74
2022-12-09T22:06:54.622Z,1.60
2022-12-09T22:09:26.321Z,1.77
2022-12-09T22:11:58.151Z,1.77
2022-12-09T22:14:29.793Z,1.70
2022-12-09T22:17:01.592Z,1.82
2022-12-09T22:19:33.800Z,1.81
2022-12-09T22:22:09.003Z,1.64
2022-12-09T22:24:41.380Z,1.81
2022-12-09T22:27:13.098Z,1.94
2022-12-09T22:29:45.534Z,1.95
2022-12-09T22:32:17.676Z,1.89
2022-12-09T22:34:49.443Z,1.83
2022-12-09T22:37:43.080Z,1.74
2022-12-09T22:40:14.458Z,1.71
2022-12-09T22:42:46.861Z,1.85
2022-12-09T22:45:18.751Z,1.74
2022-12-09T22:47:50.319Z,1.73
2022-12-09T22:50:21.935Z,1.61
2022-12-09T22:52:53.638Z,1.63
2022-12-09T22:55:25.230Z,1.68
2022-12-09T22:57:56.858Z,1.63
2022-12-09T23:00:29.011Z,1.80
2022-12-09T23:03:01.092Z,1.96
2022-12-09T23:05:36.279Z,2.10
2022-12-09T23:08:08.653Z,1.91
2022-12-09T23:10:41.056Z,2.00
2022-12-09T23:13:13.413Z,1.90
2022-12-09T23:15:45.242Z,1.79
2022-12-09T23:18:16.919Z,1.73
2022-12-09T23:20:48.689Z,1.76
2022-12-09T23:23:20.430Z,1.73
2022-12-09T23:25:52.583Z,1.93
2022-12-09T23:28:24.306Z,1.71
2022-12-09T23:30:56.613Z,1.82
2022-12-09T23:33:28.212Z,2.04
2022-12-09T23:35:59.883Z,2.00
2022-12-09T23:38:31.508Z,2.08
2022-12-09T23:41:03.273Z,2.16
2022-12-09T23:43:36.748Z,2.18
2022-12-09T23:46:15.440Z,2.18
2022-12-09T23:48:49.021Z,2.03
2022-12-09T23:51:23.207Z,1.99
2022-12-09T23:53:57.174Z,2.04
2022-12-09T23:56:30.567Z,1.96
2022-12-09T23:59:04.131Z,1.84
